sensor_id;sensor_type;location;lat;lon;timestamp;pressure;altitude;pressure_sealevel;temperature;humidity
51603;BME280;37954;51.980;5.850;2023-01-31T00:03:22;102034.63;;;3.90;87.30
51603;BME280;37954;51.980;5.850;2023-01-31T00:07:33;102041.97;;;3.78;87.67
51603;BME280;37954;51.980;5.850;2023-01-31T00:11:45;102062.09;;;3.81;87.44
51603;BME280;37954;51.980;5.850;2023-01-31T00:15:57;102072.44;;;3.84;87.52
51603;BME280;37954;51.980;5.850;2023-01-31T00:20:09;102053.03;;;3.74;87.63
51603;BME280;37954;51.980;5.850;2023-01-31T00:24:21;102070.91;;;3.81;87.51
51603;BME280;37954;51.980;5.850;2023-01-31T00:28:32;102059.47;;;3.71;87.56
51603;BME280;37954;51.980;5.850;2023-01-31T00:32:44;102058.94;;;3.68;87.41
51603;BME280;37954;51.980;5.850;2023-01-31T00:36:55;102042.75;;;3.61;87.31
51603;BME280;37954;51.980;5.850;2023-01-31T00:41:07;102051.84;;;3.59;87.48
51603;BME280;37954;51.980;5.850;2023-01-31T00:45:19;102041.09;;;3.50;87.60
51603;BME280;37954;51.980;5.850;2023-01-31T00:49:32;102021.41;;;3.43;87.68
51603;BME280;37954;51.980;5.850;2023-01-31T00:53:45;102029.97;;;3.37;87.66
51603;BME280;37954;51.980;5.850;2023-01-31T00:57:57;102034.72;;;3.34;87.50
51603;BME280;37954;51.980;5.850;2023-01-31T01:02:09;102022.13;;;3.36;87.39
51603;BME280;37954;51.980;5.850;2023-01-31T01:06:22;102023.81;;;3.37;87.84
51603;BME280;37954;51.980;5.850;2023-01-31T01:10:35;102012.34;;;3.36;87.28
51603;BME280;37954;51.980;5.850;2023-01-31T01:14:47;102005.06;;;3.38;88.17
51603;BME280;37954;51.980;5.850;2023-01-31T01:19:04;102007.03;;;3.36;87.96
51603;BME280;37954;51.980;5.850;2023-01-31T01:23:16;102001.44;;;3.39;88.30
51603;BME280;37954;51.980;5.850;2023-01-31T01:27:27;102008.56;;;3.39;88.14
51603;BME280;37954;51.980;5.850;2023-01-31T01:31:39;102016.53;;;3.39;88.03
51603;BME280;37954;51.980;5.850;2023-01-31T01:35:52;102024.22;;;3.32;88.43
51603;BME280;37954;51.980;5.850;2023-01-31T01:40:04;102021.75;;;3.21;87.97
51603;BME280;37954;51.980;5.850;2023-01-31T01:49:19;102013.41;;;3.06;87.78
51603;BME280;37954;51.980;5.850;2023-01-31T01:53:35;102044.28;;;3.07;87.72
51603;BME280;37954;51.980;5.850;2023-01-31T01:57:55;102031.75;;;2.90;87.63
51603;BME280;37954;51.980;5.850;2023-01-31T02:02:08;102025.16;;;2.85;87.66
51603;BME280;37954;51.980;5.850;2023-01-31T02:06:20;102032.72;;;2.79;87.19
51603;BME280;37954;51.980;5.850;2023-01-31T02:11:15;102037.63;;;2.74;87.51
51603;BME280;37954;51.980;5.850;2023-01-31T02:15:21;102023.50;;;2.64;87.63
51603;BME280;37954;51.980;5.850;2023-01-31T02:51:54;102013.97;;;3.57;88.57
51603;BME280;37954;51.980;5.850;2023-01-31T02:56:32;102005.16;;;3.56;88.59
51603;BME280;37954;51.980;5.850;2023-01-31T03:00:46;101993.25;;;3.60;89.22
51603;BME280;37954;51.980;5.850;2023-01-31T03:04:58;101984.81;;;3.65;88.66
51603;BME280;37954;51.980;5.850;2023-01-31T03:09:17;101967.66;;;3.59;88.65
51603;BME280;37954;51.980;5.850;2023-01-31T03:18:29;101976.56;;;3.68;88.81
51603;BME280;37954;51.980;5.850;2023-01-31T03:22:48;101986.31;;;3.77;88.64
51603;BME280;37954;51.980;5.850;2023-01-31T03:27:02;101971.50;;;3.74;88.52
51603;BME280;37954;51.980;5.850;2023-01-31T03:35:29;101972.97;;;3.87;88.68
51603;BME280;37954;51.980;5.850;2023-01-31T03:39:52;101971.53;;;3.92;88.88
51603;BME280;37954;51.980;5.850;2023-01-31T03:44:13;101963.63;;;4.00;88.94
51603;BME280;37954;51.980;5.850;2023-01-31T03:48:30;101973.53;;;4.08;89.08
51603;BME280;37954;51.980;5.850;2023-01-31T03:52:50;101956.06;;;4.05;89.12
51603;BME280;37954;51.980;5.850;2023-01-31T04:01:39;101957.97;;;4.13;89.70
51603;BME280;37954;51.980;5.850;2023-01-31T04:05:53;101944.34;;;4.16;89.38
51603;BME280;37954;51.980;5.850;2023-01-31T04:10:10;101942.22;;;4.19;89.65
51603;BME280;37954;51.980;5.850;2023-01-31T04:14:23;101943.22;;;4.18;90.07
51603;BME280;37954;51.980;5.850;2023-01-31T04:18:35;101949.84;;;4.14;90.06
51603;BME280;37954;51.980;5.850;2023-01-31T04:22:49;101923.91;;;4.16;90.44
51603;BME280;37954;51.980;5.850;2023-01-31T04:27:00;101925.53;;;4.09;90.06
51603;BME280;37954;51.980;5.850;2023-01-31T04:31:12;101934.47;;;4.08;89.55
51603;BME280;37954;51.980;5.850;2023-01-31T04:35:24;101933.19;;;4.12;89.55
51603;BME280;37954;51.980;5.850;2023-01-31T04:39:36;101925.53;;;4.09;90.57
51603;BME280;37954;51.980;5.850;2023-01-31T04:43:48;101924.25;;;4.13;90.29
51603;BME280;37954;51.980;5.850;2023-01-31T04:47:59;101921.63;;;4.22;90.35
51603;BME280;37954;51.980;5.850;2023-01-31T04:52:11;101918.28;;;4.19;90.66
51603;BME280;37954;51.980;5.850;2023-01-31T04:56:23;101922.03;;;4.27;90.58
51603;BME280;37954;51.980;5.850;2023-01-31T05:00:34;101909.88;;;4.24;90.58
51603;BME280;37954;51.980;5.850;2023-01-31T05:04:46;101896.56;;;4.24;90.80
51603;BME280;37954;51.980;5.850;2023-01-31T05:08:58;101867.69;;;4.29;91.28
51603;BME280;37954;51.980;5.850;2023-01-31T05:13:12;101868.38;;;4.31;91.40
51603;BME280;37954;51.980;5.850;2023-01-31T05:17:24;101864.41;;;4.35;91.59
51603;BME280;37954;51.980;5.850;2023-01-31T05:21:39;101860.69;;;4.28;91.66
51603;BME280;37954;51.980;5.850;2023-01-31T05:26:05;101859.91;;;4.36;91.51
51603;BME280;37954;51.980;5.850;2023-01-31T05:30:17;101879.59;;;4.43;92.08
51603;BME280;37954;51.980;5.850;2023-01-31T05:34:29;101872.75;;;4.40;92.02
51603;BME280;37954;51.980;5.850;2023-01-31T05:38:43;101885.59;;;4.45;92.02
51603;BME280;37954;51.980;5.850;2023-01-31T05:42:55;101870.63;;;4.44;92.12
51603;BME280;37954;51.980;5.850;2023-01-31T05:47:08;101872.50;;;4.51;92.04
51603;BME280;37954;51.980;5.850;2023-01-31T05:51:19;101856.72;;;4.50;92.60
51603;BME280;37954;51.980;5.850;2023-01-31T05:55:31;101856.72;;;4.50;92.72
51603;BME280;37954;51.980;5.850;2023-01-31T05:59:42;101849.75;;;4.57;92.61
51603;BME280;37954;51.980;5.850;2023-01-31T06:03:54;101852.63;;;4.64;92.80
51603;BME280;37954;51.980;5.850;2023-01-31T06:08:06;101836.66;;;4.64;93.28
51603;BME280;37954;51.980;5.850;2023-01-31T06:12:17;101829.88;;;4.69;93.25
51603;BME280;37954;51.980;5.850;2023-01-31T06:16:29;101834.25;;;4.78;93.21
51603;BME280;37954;51.980;5.850;2023-01-31T06:20:41;101816.63;;;4.77;93.91
51603;BME280;37954;51.980;5.850;2023-01-31T06:24:52;101825.66;;;4.84;94.11
51603;BME280;37954;51.980;5.850;2023-01-31T06:29:04;101825.16;;;4.89;94.05
51603;BME280;37954;51.980;5.850;2023-01-31T06:33:16;101813.47;;;4.82;93.74
51603;BME280;37954;51.980;5.850;2023-01-31T06:37:27;101815.47;;;4.80;93.91
51603;BME280;37954;51.980;5.850;2023-01-31T06:41:39;101817.13;;;4.81;94.27
51603;BME280;37954;51.980;5.850;2023-01-31T06:45:51;101807.81;;;4.85;94.10
51603;BME280;37954;51.980;5.850;2023-01-31T06:50:03;101808.19;;;4.90;94.30
51603;BME280;37954;51.980;5.850;2023-01-31T06:54:14;101800.72;;;4.94;94.53
51603;BME280;37954;51.980;5.850;2023-01-31T06:58:26;101813.41;;;5.00;94.36
51603;BME280;37954;51.980;5.850;2023-01-31T07:02:38;101809.56;;;5.02;94.00
51603;BME280;37954;51.980;5.850;2023-01-31T07:06:50;101797.75;;;5.05;94.27
51603;BME280;37954;51.980;5.850;2023-01-31T07:11:02;101791.28;;;5.07;94.02
51603;BME280;37954;51.980;5.850;2023-01-31T07:15:15;101799.25;;;5.07;94.53
51603;BME280;37954;51.980;5.850;2023-01-31T07:19:27;101794.63;;;5.09;94.62
51603;BME280;37954;51.980;5.850;2023-01-31T07:23:40;101761.97;;;4.99;94.84
51603;BME280;37954;51.980;5.850;2023-01-31T07:36:09;101796.13;;;5.20;94.28
51603;BME280;37954;51.980;5.850;2023-01-31T07:40:22;101777.69;;;5.18;94.72
51603;BME280;37954;51.980;5.850;2023-01-31T07:44:34;101782.34;;;5.24;94.08
51603;BME280;37954;51.980;5.850;2023-01-31T07:48:45;101768.84;;;5.18;93.88
51603;BME280;37954;51.980;5.850;2023-01-31T07:52:57;101760.53;;;5.29;93.96
51603;BME280;37954;51.980;5.850;2023-01-31T07:57:09;101760.22;;;5.32;93.83
51603;BME280;37954;51.980;5.850;2023-01-31T08:01:23;101767.22;;;5.33;93.90
51603;BME280;37954;51.980;5.850;2023-01-31T08:05:53;101754.91;;;5.32;93.40
51603;BME280;37954;51.980;5.850;2023-01-31T08:10:05;101747.41;;;5.36;93.28
51603;BME280;37954;51.980;5.850;2023-01-31T08:14:17;101753.22;;;5.39;92.71
51603;BME280;37954;51.980;5.850;2023-01-31T08:18:35;101761.56;;;5.44;92.47
51603;BME280;37954;51.980;5.850;2023-01-31T08:22:46;101750.56;;;5.39;92.40
51603;BME280;37954;51.980;5.850;2023-01-31T08:26:58;101753.09;;;5.49;92.39
51603;BME280;37954;51.980;5.850;2023-01-31T08:31:13;101740.56;;;5.41;91.62
51603;BME280;37954;51.980;5.850;2023-01-31T08:35:25;101723.44;;;5.44;91.92
51603;BME280;37954;51.980;5.850;2023-01-31T08:39:38;101724.78;;;5.48;91.66
51603;BME280;37954;51.980;5.850;2023-01-31T08:43:50;101730.09;;;5.56;92.04
51603;BME280;37954;51.980;5.850;2023-01-31T08:48:08;101702.97;;;5.52;92.01
51603;BME280;37954;51.980;5.850;2023-01-31T08:52:19;101732.75;;;5.72;91.21
51603;BME280;37954;51.980;5.850;2023-01-31T08:56:31;101698.47;;;5.69;91.17
51603;BME280;37954;51.980;5.850;2023-01-31T09:00:43;101717.44;;;5.82;91.33
51603;BME280;37954;51.980;5.850;2023-01-31T09:04:54;101699.78;;;5.81;91.37
51603;BME280;37954;51.980;5.850;2023-01-31T09:09:06;101705.78;;;5.91;90.92
51603;BME280;37954;51.980;5.850;2023-01-31T09:13:18;101699.09;;;5.87;90.81
51603;BME280;37954;51.980;5.850;2023-01-31T09:17:29;101708.28;;;5.93;90.38
51603;BME280;37954;51.980;5.850;2023-01-31T09:21:41;101697.63;;;5.93;90.80
51603;BME280;37954;51.980;5.850;2023-01-31T09:25:53;101672.13;;;5.90;90.64
51603;BME280;37954;51.980;5.850;2023-01-31T09:30:07;101718.75;;;6.11;90.07
51603;BME280;37954;51.980;5.850;2023-01-31T09:34:19;101683.94;;;5.96;90.32
51603;BME280;37954;51.980;5.850;2023-01-31T09:38:33;101711.91;;;6.08;90.16
51603;BME280;37954;51.980;5.850;2023-01-31T09:42:45;101683.28;;;5.94;90.04
51603;BME280;37954;51.980;5.850;2023-01-31T09:47:23;101678.63;;;5.96;89.92
51603;BME280;37954;51.980;5.850;2023-01-31T09:51:41;101687.25;;;6.06;89.89
51603;BME280;37954;51.980;5.850;2023-01-31T10:00:38;101715.03;;;6.28;89.95
51603;BME280;37954;51.980;5.850;2023-01-31T10:14:34;101704.84;;;6.40;90.18
51603;BME280;37954;51.980;5.850;2023-01-31T10:18:55;101695.97;;;6.47;90.04
51603;BME280;37954;51.980;5.850;2023-01-31T10:23:15;101664.63;;;6.41;89.97
51603;BME280;37954;51.980;5.850;2023-01-31T10:27:39;101681.13;;;6.76;90.38
51603;BME280;37954;51.980;5.850;2023-01-31T10:31:57;101663.50;;;6.75;90.38
51603;BME280;37954;51.980;5.850;2023-01-31T10:36:32;101660.44;;;6.78;89.91
51603;BME280;37954;51.980;5.850;2023-01-31T10:40:49;101651.16;;;6.74;89.27
51603;BME280;37954;51.980;5.850;2023-01-31T10:49:23;101650.13;;;6.97;89.60
51603;BME280;37954;51.980;5.850;2023-01-31T10:58:25;101643.09;;;7.05;89.11
51603;BME280;37954;51.980;5.850;2023-01-31T11:02:37;101649.75;;;7.09;89.08
51603;BME280;37954;51.980;5.850;2023-01-31T11:06:50;101647.34;;;7.14;89.24
51603;BME280;37954;51.980;5.850;2023-01-31T11:11:11;101652.47;;;7.23;89.06
51603;BME280;37954;51.980;5.850;2023-01-31T11:15:25;101616.31;;;7.13;88.87
51603;BME280;37954;51.980;5.850;2023-01-31T11:19:47;101644.72;;;7.28;89.14
51603;BME280;37954;51.980;5.850;2023-01-31T11:24:03;101614.59;;;7.20;89.01
51603;BME280;37954;51.980;5.850;2023-01-31T11:28:35;101636.91;;;7.27;89.00
51603;BME280;37954;51.980;5.850;2023-01-31T11:32:47;101636.91;;;7.27;89.14
51603;BME280;37954;51.980;5.850;2023-01-31T11:37:08;101627.59;;;7.23;89.29
51603;BME280;37954;51.980;5.850;2023-01-31T11:41:35;101598.47;;;7.28;89.48
51603;BME280;37954;51.980;5.850;2023-01-31T11:45:59;101611.72;;;7.44;89.42
51603;BME280;37954;51.980;5.850;2023-01-31T11:54:43;101588.09;;;7.48;90.05
51603;BME280;37954;51.980;5.850;2023-01-31T11:59:01;101576.97;;;7.44;90.44
51603;BME280;37954;51.980;5.850;2023-01-31T12:03:15;101582.94;;;7.46;90.52
51603;BME280;37954;51.980;5.850;2023-01-31T12:07:41;101596.41;;;7.53;90.91
51603;BME280;37954;51.980;5.850;2023-01-31T12:11:57;101597.06;;;7.55;91.40
51603;BME280;37954;51.980;5.850;2023-01-31T12:16:10;101577.31;;;7.41;91.79
51603;BME280;37954;51.980;5.850;2023-01-31T12:20:28;101602.78;;;7.52;92.99
51603;BME280;37954;51.980;5.850;2023-01-31T12:38:17;101591.44;;;7.50;95.51
51603;BME280;37954;51.980;5.850;2023-01-31T12:42:53;101579.16;;;7.41;95.88
51603;BME280;37954;51.980;5.850;2023-01-31T12:51:35;101582.69;;;7.56;96.27
51603;BME280;37954;51.980;5.850;2023-01-31T13:04:29;101541.16;;;7.45;97.40
51603;BME280;37954;51.980;5.850;2023-01-31T13:08:51;101546.25;;;7.55;97.29
51603;BME280;37954;51.980;5.850;2023-01-31T13:13:30;101564.50;;;7.66;97.64
51603;BME280;37954;51.980;5.850;2023-01-31T13:17:46;101539.81;;;7.64;97.74
51603;BME280;37954;51.980;5.850;2023-01-31T13:22:09;101525.41;;;7.65;98.10
51603;BME280;37954;51.980;5.850;2023-01-31T13:26:34;101539.06;;;7.85;98.40
51603;BME280;37954;51.980;5.850;2023-01-31T13:30:57;101547.47;;;7.96;98.41
51603;BME280;37954;51.980;5.850;2023-01-31T13:35:31;101548.28;;;7.97;98.77
51603;BME280;37954;51.980;5.850;2023-01-31T13:39:52;101537.03;;;8.01;98.59
51603;BME280;37954;51.980;5.850;2023-01-31T13:44:11;101551.13;;;8.10;98.76
51603;BME280;37954;51.980;5.850;2023-01-31T13:48:34;101541.91;;;8.13;98.64
51603;BME280;37954;51.980;5.850;2023-01-31T13:52:51;101545.78;;;8.10;98.34
51603;BME280;37954;51.980;5.850;2023-01-31T13:57:21;101555.16;;;8.21;98.47
51603;BME280;37954;51.980;5.850;2023-01-31T14:01:43;101556.47;;;8.25;98.48
51603;BME280;37954;51.980;5.850;2023-01-31T14:05:58;101559.13;;;8.25;98.36
51603;BME280;37954;51.980;5.850;2023-01-31T14:18:47;101567.63;;;8.28;97.75
51603;BME280;37954;51.980;5.850;2023-01-31T14:27:45;101570.84;;;8.38;97.77
51603;BME280;37954;51.980;5.850;2023-01-31T14:32:15;101590.09;;;8.49;97.34
51603;BME280;37954;51.980;5.850;2023-01-31T14:45:56;101607.38;;;8.61;96.78
51603;BME280;37954;51.980;5.850;2023-01-31T14:50:22;101592.22;;;8.53;96.59
51603;BME280;37954;51.980;5.850;2023-01-31T14:59:01;101617.91;;;8.62;96.00
51603;BME280;37954;51.980;5.850;2023-01-31T15:03:20;101601.56;;;8.57;95.67
51603;BME280;37954;51.980;5.850;2023-01-31T15:07:35;101628.47;;;8.70;95.38
51603;BME280;37954;51.980;5.850;2023-01-31T15:11:47;101615.13;;;8.56;94.84
51603;BME280;37954;51.980;5.850;2023-01-31T15:16:01;101621.31;;;8.56;94.51
51603;BME280;37954;51.980;5.850;2023-01-31T15:20:21;101630.28;;;8.63;93.98
51603;BME280;37954;51.980;5.850;2023-01-31T15:24:38;101635.22;;;8.66;93.10
51603;BME280;37954;51.980;5.850;2023-01-31T15:28:51;101618.53;;;8.50;92.18
51603;BME280;37954;51.980;5.850;2023-01-31T15:33:06;101639.38;;;8.69;90.64
51603;BME280;37954;51.980;5.850;2023-01-31T15:37:32;101629.25;;;8.64;89.83
51603;BME280;37954;51.980;5.850;2023-01-31T15:41:44;101625.94;;;8.62;88.80
51603;BME280;37954;51.980;5.850;2023-01-31T15:45:56;101620.13;;;8.59;87.33
51603;BME280;37954;51.980;5.850;2023-01-31T15:50:15;101645.38;;;8.71;86.64
51603;BME280;37954;51.980;5.850;2023-01-31T15:54:28;101657.19;;;8.77;85.64
51603;BME280;37954;51.980;5.850;2023-01-31T15:58:45;101629.63;;;8.61;85.59
51603;BME280;37954;51.980;5.850;2023-01-31T16:02:58;101649.53;;;8.73;85.29
51603;BME280;37954;51.980;5.850;2023-01-31T16:07:17;101648.25;;;8.69;84.84
51603;BME280;37954;51.980;5.850;2023-01-31T16:11:32;101672.63;;;8.75;85.10
51603;BME280;37954;51.980;5.850;2023-01-31T16:15:45;101627.50;;;8.57;84.70
51603;BME280;37954;51.980;5.850;2023-01-31T16:19:57;101655.63;;;8.67;84.53
51603;BME280;37954;51.980;5.850;2023-01-31T16:24:20;101643.88;;;8.47;83.79
51603;BME280;37954;51.980;5.850;2023-01-31T16:28:42;101650.16;;;8.40;83.27
51603;BME280;37954;51.980;5.850;2023-01-31T16:32:55;101685.59;;;8.56;82.61
51603;BME280;37954;51.980;5.850;2023-01-31T16:37:09;101693.91;;;8.61;81.97
51603;BME280;37954;51.980;5.850;2023-01-31T16:46:04;101678.75;;;8.54;80.58
51603;BME280;37954;51.980;5.850;2023-01-31T16:55:10;101695.19;;;8.65;80.54
51603;BME280;37954;51.980;5.850;2023-01-31T17:25:27;101705.94;;;7.98;80.53
51603;BME280;37954;51.980;5.850;2023-01-31T19:25:12;101712.56;;;6.18;82.36
51603;BME280;37954;51.980;5.850;2023-01-31T19:29:23;101715.59;;;6.15;83.07
51603;BME280;37954;51.980;5.850;2023-01-31T19:33:35;101720.09;;;6.15;82.92
51603;BME280;37954;51.980;5.850;2023-01-31T19:37:47;101703.91;;;6.08;83.72
51603;BME280;37954;51.980;5.850;2023-01-31T19:41:59;101713.56;;;6.17;83.14
51603;BME280;37954;51.980;5.850;2023-01-31T19:46:10;101683.13;;;6.04;83.17
51603;BME280;37954;51.980;5.850;2023-01-31T19:50:22;101689.25;;;6.12;83.52
51603;BME280;37954;51.980;5.850;2023-01-31T19:54:33;101709.25;;;6.16;83.22
51603;BME280;37954;51.980;5.850;2023-01-31T19:58:45;101708.06;;;6.11;83.44
51603;BME280;37954;51.980;5.850;2023-01-31T20:02:57;101709.63;;;6.05;83.70
51603;BME280;37954;51.980;5.850;2023-01-31T20:07:09;101707.78;;;6.06;83.47
51603;BME280;37954;51.980;5.850;2023-01-31T20:11:22;101718.91;;;6.09;83.72
51603;BME280;37954;51.980;5.850;2023-01-31T20:15:34;101717.78;;;6.04;83.80
51603;BME280;37954;51.980;5.850;2023-01-31T20:19:45;101714.59;;;5.92;83.65
51603;BME280;37954;51.980;5.850;2023-01-31T20:23:57;101721.63;;;5.93;83.68
51603;BME280;37954;51.980;5.850;2023-01-31T20:28:08;101725.78;;;5.87;83.87
51603;BME280;37954;51.980;5.850;2023-01-31T20:32:20;101717.28;;;5.84;83.63
51603;BME280;37954;51.980;5.850;2023-01-31T20:36:31;101722.78;;;5.82;83.66
51603;BME280;37954;51.980;5.850;2023-01-31T20:40:51;101718.09;;;5.76;83.87
51603;BME280;37954;51.980;5.850;2023-01-31T20:45:03;101722.78;;;5.66;83.43
51603;BME280;37954;51.980;5.850;2023-01-31T20:49:15;101710.59;;;5.55;83.72
51603;BME280;37954;51.980;5.850;2023-01-31T20:53:27;101698.97;;;5.48;83.95
51603;BME280;37954;51.980;5.850;2023-01-31T20:57:38;101694.44;;;5.41;83.69
51603;BME280;37954;51.980;5.850;2023-01-31T21:01:50;101706.09;;;5.40;83.63
51603;BME280;37954;51.980;5.850;2023-01-31T21:06:02;101704.13;;;5.34;83.52
51603;BME280;37954;51.980;5.850;2023-01-31T21:10:17;101701.94;;;5.29;83.70
51603;BME280;37954;51.980;5.850;2023-01-31T21:14:29;101700.91;;;5.22;83.73
51603;BME280;37954;51.980;5.850;2023-01-31T21:18:41;101704.41;;;5.14;83.77
51603;BME280;37954;51.980;5.850;2023-01-31T21:22:54;101682.94;;;5.08;84.12
51603;BME280;37954;51.980;5.850;2023-01-31T21:27:06;101688.56;;;5.05;84.00
51603;BME280;37954;51.980;5.850;2023-01-31T21:31:18;101672.09;;;4.93;83.74
51603;BME280;37954;51.980;5.850;2023-01-31T21:35:30;101679.09;;;4.94;83.81
51603;BME280;37954;51.980;5.850;2023-01-31T21:39:42;101691.72;;;4.92;84.14
51603;BME280;37954;51.980;5.850;2023-01-31T21:43:54;101684.56;;;4.84;84.08
51603;BME280;37954;51.980;5.850;2023-01-31T21:48:08;101667.09;;;4.82;84.13
51603;BME280;37954;51.980;5.850;2023-01-31T21:52:38;101667.56;;;4.77;84.30
51603;BME280;37954;51.980;5.850;2023-01-31T21:56:50;101652.91;;;4.73;84.29
51603;BME280;37954;51.980;5.850;2023-01-31T22:01:22;101666.38;;;4.72;84.30
51603;BME280;37954;51.980;5.850;2023-01-31T22:05:34;101665.03;;;4.68;84.37
51603;BME280;37954;51.980;5.850;2023-01-31T22:09:45;101655.88;;;4.62;84.51
51603;BME280;37954;51.980;5.850;2023-01-31T22:13:58;101651.03;;;4.58;84.55
51603;BME280;37954;51.980;5.850;2023-01-31T22:18:10;101656.88;;;4.61;84.56
51603;BME280;37954;51.980;5.850;2023-01-31T22:22:21;101657.56;;;4.63;85.19
51603;BME280;37954;51.980;5.850;2023-01-31T22:26:39;101659.69;;;4.60;84.75
51603;BME280;37954;51.980;5.850;2023-01-31T22:30:55;101660.69;;;4.59;85.07
51603;BME280;37954;51.980;5.850;2023-01-31T22:35:07;101644.03;;;4.48;85.23
51603;BME280;37954;51.980;5.850;2023-01-31T22:39:19;101643.88;;;4.50;85.64
51603;BME280;37954;51.980;5.850;2023-01-31T22:43:30;101645.19;;;4.54;85.91
51603;BME280;37954;51.980;5.850;2023-01-31T22:47:42;101635.22;;;4.48;86.40
51603;BME280;37954;51.980;5.850;2023-01-31T22:51:53;101644.69;;;4.50;86.40
51603;BME280;37954;51.980;5.850;2023-01-31T22:56:14;101623.53;;;4.41;86.58
51603;BME280;37954;51.980;5.850;2023-01-31T23:00:26;101634.22;;;4.49;86.86
51603;BME280;37954;51.980;5.850;2023-01-31T23:04:37;101628.06;;;4.48;87.51
51603;BME280;37954;51.980;5.850;2023-01-31T23:08:49;101628.41;;;4.53;87.38
51603;BME280;37954;51.980;5.850;2023-01-31T23:13:01;101616.28;;;4.59;87.71
51603;BME280;37954;51.980;5.850;2023-01-31T23:17:12;101619.47;;;4.63;87.96
51603;BME280;37954;51.980;5.850;2023-01-31T23:21:42;101632.94;;;4.69;88.09
51603;BME280;37954;51.980;5.850;2023-01-31T23:25:54;101623.47;;;4.75;88.65
51603;BME280;37954;51.980;5.850;2023-01-31T23:30:08;101621.31;;;4.86;88.66
51603;BME280;37954;51.980;5.850;2023-01-31T23:34:20;101611.19;;;4.90;88.53
51603;BME280;37954;51.980;5.850;2023-01-31T23:38:32;101612.53;;;4.94;87.87
51603;BME280;37954;51.980;5.850;2023-01-31T23:42:43;101610.53;;;4.96;87.46
51603;BME280;37954;51.980;5.850;2023-01-31T23:46:55;101608.84;;;5.03;87.34
51603;BME280;37954;51.980;5.850;2023-01-31T23:51:06;101602.38;;;5.06;87.23
51603;BME280;37954;51.980;5.850;2023-01-31T23:55:18;101605.06;;;5.14;86.64
51603;BME280;37954;51.980;5.850;2023-01-31T23:59:30;101621.00;;;5.22;85.87
